• Join FlightAware (Why Join?)
  • Login
  • US Flag 
12:33PM EDT


 

Airport Tracker/Info


-or-


 

Live Flight TrackerFlight Track Log ✈ GLA85D ✈ 10-May-2013 ✈ KDEN - KDDC

Flight Track Log - Related Links

Times and Time Zones

All times are in EDT time to prevent confusion due to time zone crossing. See the GLA85D flight status page for this flight to view local times or setup timezone preferences in your user account.

Time Position Orientation Groundspeed Altitude Reporting Facility
EDT Latitude Longitude Course Direction KTS MPH feet Rate Location/Type
09:30AM 39.8000 -104.6333 108° East 188 216 7,600  Level Denver TRACON
09:31AM 39.7500 -104.5833 142° Southeast 213 245 9,000 1,020 Climbing Denver TRACON
09:32AM 39.7300 -104.5681 150° Southeast 215 247 9,100 60 Climbing Denver Center
09:33AM 39.6850 -104.5011 131° Southeast 237 273 9,100 -60 Level Denver Center
09:34AM 39.6742 -104.4183 100° East 233 268 9,000  Descending Denver Center
09:35AM 39.6631 -104.3364 100° East 232 267 9,100 240 Climbing Denver Center
09:36AM 39.6913 -104.2151 108° East  Level FlightAware Approximate
09:36AM 39.6536 -104.2511 98° East 237 273 9,600  Level Denver Center
09:37AM 39.6408 -104.1583 100° East 242 278 10,900 660 Climbing Denver Center
09:38AM 39.6269 -104.0681 101° East 254 292 11,200 1,020 Climbing Denver Center
09:39AM 39.6086 -103.9597 102° East 247 284 13,200 1,500 Climbing Denver Center
09:40AM 39.5992 -103.8961 101° East 237 273 14,300 1,200 Climbing Denver Center
09:41AM 39.5797 -103.7944 104° East 238 274 15,700 1,320 Climbing Denver Center
09:42AM 39.5628 -103.7064 104° East 243 280 17,000 960 Climbing Denver Center
09:43AM 39.5453 -103.6322 107° East 234 269 17,700 900 Climbing Denver Center
09:44AM 39.5167 -103.5386 112° Southeast 248 285 18,900 1,080 Climbing Denver Center
09:45AM 39.4944 -103.4594 110° East 247 284 20,000 960 Climbing Denver Center
09:46AM 39.4767 -103.3783 106° East 244 281 20,900 900 Climbing Denver Center
09:47AM 39.4497 -103.2867 111° Southeast 245 282 21,900 840 Climbing Denver Center
09:48AM 39.4194 -103.2122 118° Southeast 245 282 22,700 540 Climbing Denver Center
09:49AM 39.3878 -103.1364 118° Southeast 251 289 23,000 120 Climbing Denver Center
09:50AM 39.3492 -103.0450 119° Southeast 258 297 23,000  Level Denver Center
09:51AM 39.3169 -102.9653 118° Southeast 260 299 23,000  Level Denver Center
09:52AM 39.2797 -102.8736 118° Southeast 258 297 23,000  Level Denver Center
09:53AM 39.2450 -102.7989 121° Southeast 255 293 23,000  Level Denver Center
09:54AM 39.2061 -102.7164 121° Southeast 252 290 23,000  Level Denver Center
09:55AM 39.1703 -102.6447 123° Southeast 250 288 23,000  Level Denver Center
09:56AM 39.1342 -102.5725 123° Southeast 251 289 23,000  Level Denver Center
09:57AM 39.0861 -102.4775 123° Southeast 249 287 23,000  Level Denver Center
09:58AM 39.0511 -102.4067 122° Southeast 247 284 23,000  Level Denver Center
10:00AM 39.0089 -102.3231 123° Southeast 250 288 23,000  Level Denver Center
10:01AM 38.9742 -102.2511 122° Southeast 249 287 23,000  Level Denver Center
10:02AM 38.9306 -102.1719 125° Southeast 244 281 23,000  Level Denver Center
10:03AM 38.8906 -102.1036 127° Southeast 248 285 23,000  Level Denver Center
10:04AM 38.8422 -102.0269 129° Southeast 249 287 23,000  Level Denver Center
10:05AM 38.8028 -101.9572 126° Southeast 251 289 23,000  Level Denver Center
10:06AM 38.7650 -101.8881 125° Southeast 249 287 23,000  Level Denver Center
10:07AM 38.7181 -101.8078 127° Southeast 252 290 23,000  Level Denver Center
10:08AM 38.6811 -101.7356 123° Southeast 253 291 23,000  Level Denver Center
10:09AM 38.6364 -101.6531 125° Southeast 252 290 23,000  Level Denver Center
10:10AM 38.5956 -101.5806 126° Southeast 260 299 23,000  Level Denver Center
10:11AM 38.5569 -101.5117 126° Southeast 251 289 23,000  Level Denver Center
10:12AM 38.5133 -101.4267 123° Southeast 253 291 23,000  Level Denver Center
10:13AM 38.4794 -101.3500 119° Southeast 256 295 23,000  Level Denver Center
10:14AM 38.4417 -101.2611 118° Southeast 255 293 23,000  Level Denver Center
10:15AM 38.4111 -101.1836 117° Southeast 255 293 23,000  Level Denver Center
10:16AM 38.3808 -101.1069 117° Southeast 254 292 23,000  Level Denver Center
10:17AM 38.3442 -101.0167 117° Southeast 255 293 23,000  Level Denver Center
10:18AM 38.3122 -100.9389 118° Southeast 258 297 23,000 -300 Level Denver Center
10:19AM 38.2744 -100.8494 118° Southeast 257 296 22,500 -780 Descending Denver Center
10:20AM 38.2386 -100.7778 122° Southeast 251 289 21,400 -1,320 Descending Denver Center
10:21AM 38.1953 -100.6986 125° Southeast 245 282 19,900 -1,320 Descending Denver Center
10:22AM 38.1603 -100.6306 123° Southeast 241 277 18,700 -1,200 Descending Denver Center
10:22AM 38.1492 -100.6081 122° Southeast 241 277 18,300 -1,200 Descending Kansas City Center
10:23AM 38.1142 -100.5414 124° Southeast 238 274 17,100 -1,320 Descending Kansas City Center
10:24AM 38.0717 -100.4628 124° Southeast 239 275 15,600 -1,440 Descending Kansas City Center
10:25AM 38.0369 -100.3956 123° Southeast 239 275 14,200 -1,440 Descending Kansas City Center
10:27AM 37.9847 -100.3322 136° Southeast  Level FlightAware Approximate
10:34AM 37.7631 -99.9654 122° Southeast  Level Estimated
10:35AM 37.7631 -99.9654 122° Southeast  Level Estimated
10:36AM 37.7631 -99.9654 122° Southeast  Level Estimated
10:37AM 37.7631 -99.9654 122° Southeast  Level Estimated
10:38AM 37.7631 -99.9654 122° Southeast  Level Estimated
10:39AM 37.7631 -99.9654 122° Southeast  Level Estimated
10:40AM 37.7631 -99.9654 122° Southeast  Level Estimated
10:41AM 37.7631 -99.9654 122° Southeast  Level Estimated
10:42AM 37.7631 -99.9654 122° Southeast  Level Estimated
10:43AM 37.7631 -99.9654 122° Southeast  Level Estimated